<?xml version="1.0" encoding="UTF-8" standalone="no" ?>
<gpx xmlns="http://www.topografix.com/GPX/1/1" xmlns:xsi="http://www.w3.org/2001/XMLSchema-instance" xsi:schemaLocation="http://www.topografix.com/GPX/1/1 http://www.topografix.com/GPX/1/1/gpx.xsd" version="1.1" creator="VisuGPX - https://www.visugpx.com">
  <metadata>
    <name>Belvédère du Gougnot et Château d\\\'Ornans</name>
    <desc><![CDATA[Ballade agréable sur le plateau d\\\'Ornans avec vue sur la vallée de la Brème au retour.]]></desc>
  </metadata>
  <trk>
    <name><![CDATA[9 avr. 2011 12:24:43]]></name>
    <cmt><![CDATA[9 avr. 2011 12:24:43]]></cmt>
    <trkseg>
      <trkpt lat="47.10674" lon="6.14547">
        <ele>358</ele>
        <time>2011-04-09T10:24:43Z</time>
      </trkpt>
      <trkpt lat="47.10685" lon="6.14549">
        <ele>358</ele>
        <time>2011-04-09T10:24:46Z</time>
      </trkpt>
      <trkpt lat="47.10685" lon="6.14549">
        <ele>358</ele>
        <time>2011-04-09T10:24:51Z</time>
      </trkpt>
      <trkpt lat="47.10689" lon="6.14537">
        <ele>339</ele>
        <time>2011-04-09T10:25:00Z</time>
      </trkpt>
      <trkpt lat="47.10689" lon="6.14526">
        <ele>338</ele>
        <time>2011-04-09T10:25:19Z</time>
      </trkpt>
      <trkpt lat="47.1069" lon="6.14516">
        <ele>339</ele>
        <time>2011-04-09T10:26:13Z</time>
      </trkpt>
      <trkpt lat="47.1069" lon="6.14522">
        <ele>338</ele>
        <time>2011-04-09T10:27:22Z</time>
      </trkpt>
      <trkpt lat="47.10686" lon="6.14537">
        <ele>338</ele>
        <time>2011-04-09T10:27:36Z</time>
      </trkpt>
      <trkpt lat="47.10678" lon="6.1453">
        <ele>336</ele>
        <time>2011-04-09T10:27:52Z</time>
      </trkpt>
      <trkpt lat="47.10668" lon="6.14534">
        <ele>335</ele>
        <time>2011-04-09T10:28:02Z</time>
      </trkpt>
      <trkpt lat="47.10665" lon="6.14539">
        <ele>335</ele>
        <time>2011-04-09T10:28:07Z</time>
      </trkpt>
      <trkpt lat="47.10662" lon="6.14537">
        <ele>333</ele>
        <time>2011-04-09T10:28:33Z</time>
      </trkpt>
      <trkpt lat="47.10663" lon="6.1455">
        <ele>333</ele>
        <time>2011-04-09T10:28:47Z</time>
      </trkpt>
      <trkpt lat="47.10664" lon="6.14565">
        <ele>333</ele>
        <time>2011-04-09T10:28:53Z</time>
      </trkpt>
      <trkpt lat="47.10654" lon="6.14598">
        <ele>332</ele>
        <time>2011-04-09T10:29:15Z</time>
      </trkpt>
      <trkpt lat="47.10643" lon="6.14604">
        <ele>331</ele>
        <time>2011-04-09T10:29:32Z</time>
      </trkpt>
      <trkpt lat="47.10636" lon="6.14603">
        <ele>330</ele>
        <time>2011-04-09T10:29:38Z</time>
      </trkpt>
      <trkpt lat="47.10611" lon="6.14596">
        <ele>330</ele>
        <time>2011-04-09T10:30:05Z</time>
      </trkpt>
      <trkpt lat="47.10607" lon="6.14593">
        <ele>330</ele>
        <time>2011-04-09T10:30:28Z</time>
      </trkpt>
      <trkpt lat="47.10616" lon="6.14597">
        <ele>330</ele>
        <time>2011-04-09T10:30:53Z</time>
      </trkpt>
      <trkpt lat="47.10658" lon="6.14638">
        <ele>330</ele>
        <time>2011-04-09T10:31:27Z</time>
      </trkpt>
      <trkpt lat="47.10661" lon="6.14644">
        <ele>330</ele>
        <time>2011-04-09T10:31:32Z</time>
      </trkpt>
      <trkpt lat="47.1066" lon="6.14654">
        <ele>330</ele>
        <time>2011-04-09T10:31:39Z</time>
      </trkpt>
      <trkpt lat="47.10656" lon="6.14665">
        <ele>330</ele>
        <time>2011-04-09T10:31:48Z</time>
      </trkpt>
      <trkpt lat="47.10628" lon="6.14703">
        <ele>330</ele>
        <time>2011-04-09T10:32:19Z</time>
      </trkpt>
      <trkpt lat="47.1061" lon="6.14731">
        <ele>330</ele>
        <time>2011-04-09T10:32:51Z</time>
      </trkpt>
      <trkpt lat="47.10577" lon="6.14801">
        <ele>330</ele>
        <time>2011-04-09T10:33:30Z</time>
      </trkpt>
      <trkpt lat="47.10548" lon="6.14839">
        <ele>330</ele>
        <time>2011-04-09T10:34:02Z</time>
      </trkpt>
      <trkpt lat="47.1053" lon="6.14877">
        <ele>330</ele>
        <time>2011-04-09T10:34:32Z</time>
      </trkpt>
      <trkpt lat="47.10491" lon="6.14911">
        <ele>330</ele>
        <time>2011-04-09T10:35:05Z</time>
      </trkpt>
      <trkpt lat="47.10463" lon="6.14917">
        <ele>331</ele>
        <time>2011-04-09T10:35:27Z</time>
      </trkpt>
      <trkpt lat="47.1046" lon="6.1493">
        <ele>331</ele>
        <time>2011-04-09T10:35:33Z</time>
      </trkpt>
      <trkpt lat="47.10459" lon="6.14944">
        <ele>332</ele>
        <time>2011-04-09T10:35:38Z</time>
      </trkpt>
      <trkpt lat="47.10446" lon="6.1498">
        <ele>332</ele>
        <time>2011-04-09T10:35:58Z</time>
      </trkpt>
      <trkpt lat="47.10438" lon="6.15049">
        <ele>331</ele>
        <time>2011-04-09T10:36:28Z</time>
      </trkpt>
      <trkpt lat="47.1043" lon="6.15055">
        <ele>331</ele>
        <time>2011-04-09T10:36:34Z</time>
      </trkpt>
      <trkpt lat="47.10403" lon="6.15105">
        <ele>330</ele>
        <time>2011-04-09T10:37:09Z</time>
      </trkpt>
      <trkpt lat="47.10399" lon="6.1512">
        <ele>330</ele>
        <time>2011-04-09T10:37:15Z</time>
      </trkpt>
      <trkpt lat="47.10403" lon="6.15153">
        <ele>331</ele>
        <time>2011-04-09T10:37:36Z</time>
      </trkpt>
      <trkpt lat="47.10394" lon="6.15162">
        <ele>331</ele>
        <time>2011-04-09T10:37:42Z</time>
      </trkpt>
      <trkpt lat="47.10371" lon="6.15197">
        <ele>331</ele>
        <time>2011-04-09T10:38:13Z</time>
      </trkpt>
      <trkpt lat="47.10337" lon="6.15248">
        <ele>331</ele>
        <time>2011-04-09T10:38:43Z</time>
      </trkpt>
      <trkpt lat="47.10309" lon="6.15286">
        <ele>331</ele>
        <time>2011-04-09T10:39:14Z</time>
      </trkpt>
      <trkpt lat="47.10298" lon="6.15314">
        <ele>331</ele>
        <time>2011-04-09T10:39:30Z</time>
      </trkpt>
      <trkpt lat="47.10283" lon="6.15381">
        <ele>330</ele>
        <time>2011-04-09T10:40:03Z</time>
      </trkpt>
      <trkpt lat="47.10268" lon="6.15441">
        <ele>331</ele>
        <time>2011-04-09T10:40:36Z</time>
      </trkpt>
      <trkpt lat="47.10259" lon="6.15512">
        <ele>330</ele>
        <time>2011-04-09T10:41:12Z</time>
      </trkpt>
      <trkpt lat="47.1026" lon="6.15573">
        <ele>330</ele>
        <time>2011-04-09T10:41:41Z</time>
      </trkpt>
      <trkpt lat="47.10273" lon="6.15595">
        <ele>331</ele>
        <time>2011-04-09T10:41:54Z</time>
      </trkpt>
      <trkpt lat="47.10275" lon="6.15604">
        <ele>332</ele>
        <time>2011-04-09T10:41:58Z</time>
      </trkpt>
      <trkpt lat="47.10312" lon="6.15639">
        <ele>338</ele>
        <time>2011-04-09T10:42:32Z</time>
      </trkpt>
      <trkpt lat="47.10336" lon="6.15676">
        <ele>340</ele>
        <time>2011-04-09T10:43:05Z</time>
      </trkpt>
      <trkpt lat="47.10366" lon="6.1571">
        <ele>339</ele>
        <time>2011-04-09T10:43:37Z</time>
      </trkpt>
      <trkpt lat="47.10411" lon="6.15745">
        <ele>339</ele>
        <time>2011-04-09T10:44:10Z</time>
      </trkpt>
      <trkpt lat="47.10454" lon="6.15771">
        <ele>338</ele>
        <time>2011-04-09T10:44:40Z</time>
      </trkpt>
      <trkpt lat="47.10484" lon="6.15826">
        <ele>337</ele>
        <time>2011-04-09T10:45:14Z</time>
      </trkpt>
      <trkpt lat="47.10487" lon="6.15833">
        <ele>336</ele>
        <time>2011-04-09T10:45:18Z</time>
      </trkpt>
      <trkpt lat="47.10497" lon="6.15839">
        <ele>336</ele>
        <time>2011-04-09T10:45:27Z</time>
      </trkpt>
      <trkpt lat="47.10502" lon="6.1584">
        <ele>336</ele>
        <time>2011-04-09T10:45:31Z</time>
      </trkpt>
      <trkpt lat="47.1051" lon="6.15848">
        <ele>336</ele>
        <time>2011-04-09T10:45:38Z</time>
      </trkpt>
      <trkpt lat="47.10511" lon="6.15857">
        <ele>336</ele>
        <time>2011-04-09T10:45:44Z</time>
      </trkpt>
      <trkpt lat="47.10524" lon="6.15871">
        <ele>336</ele>
        <time>2011-04-09T10:45:57Z</time>
      </trkpt>
      <trkpt lat="47.10538" lon="6.15878">
        <ele>336</ele>
        <time>2011-04-09T10:46:09Z</time>
      </trkpt>
      <trkpt lat="47.10545" lon="6.15887">
        <ele>335</ele>
        <time>2011-04-09T10:46:19Z</time>
      </trkpt>
      <trkpt lat="47.10546" lon="6.15901">
        <ele>335</ele>
        <time>2011-04-09T10:46:26Z</time>
      </trkpt>
      <trkpt lat="47.1053" lon="6.15959">
        <ele>334</ele>
        <time>2011-04-09T10:46:59Z</time>
      </trkpt>
      <trkpt lat="47.1052" lon="6.15988">
        <ele>334</ele>
        <time>2011-04-09T10:47:20Z</time>
      </trkpt>
      <trkpt lat="47.10521" lon="6.15992">
        <ele>335</ele>
        <time>2011-04-09T10:48:16Z</time>
      </trkpt>
      <trkpt lat="47.10516" lon="6.15994">
        <ele>336</ele>
        <time>2011-04-09T10:48:49Z</time>
      </trkpt>
      <trkpt lat="47.10514" lon="6.16003">
        <ele>336</ele>
        <time>2011-04-09T10:49:01Z</time>
      </trkpt>
      <trkpt lat="47.10499" lon="6.16048">
        <ele>336</ele>
        <time>2011-04-09T10:49:31Z</time>
      </trkpt>
      <trkpt lat="47.10488" lon="6.16103">
        <ele>337</ele>
        <time>2011-04-09T10:50:03Z</time>
      </trkpt>
      <trkpt lat="47.10481" lon="6.16167">
        <ele>335</ele>
        <time>2011-04-09T10:50:41Z</time>
      </trkpt>
      <trkpt lat="47.10498" lon="6.16224">
        <ele>334</ele>
        <time>2011-04-09T10:51:18Z</time>
      </trkpt>
      <trkpt lat="47.10502" lon="6.16275">
        <ele>336</ele>
        <time>2011-04-09T10:52:00Z</time>
      </trkpt>
      <trkpt lat="47.10497" lon="6.1633">
        <ele>339</ele>
        <time>2011-04-09T10:52:34Z</time>
      </trkpt>
      <trkpt lat="47.10501" lon="6.16384">
        <ele>341</ele>
        <time>2011-04-09T10:53:10Z</time>
      </trkpt>
      <trkpt lat="47.10502" lon="6.16406">
        <ele>342</ele>
        <time>2011-04-09T10:53:26Z</time>
      </trkpt>
      <trkpt lat="47.10499" lon="6.16451">
        <ele>344</ele>
        <time>2011-04-09T10:53:59Z</time>
      </trkpt>
      <trkpt lat="47.10497" lon="6.16498">
        <ele>346</ele>
        <time>2011-04-09T10:54:31Z</time>
      </trkpt>
      <trkpt lat="47.10488" lon="6.1654">
        <ele>349</ele>
        <time>2011-04-09T10:55:05Z</time>
      </trkpt>
      <trkpt lat="47.1048" lon="6.16579">
        <ele>354</ele>
        <time>2011-04-09T10:55:37Z</time>
      </trkpt>
      <trkpt lat="47.1048" lon="6.1663">
        <ele>361</ele>
        <time>2011-04-09T10:56:20Z</time>
      </trkpt>
      <trkpt lat="47.10471" lon="6.16671">
        <ele>367</ele>
        <time>2011-04-09T10:56:51Z</time>
      </trkpt>
      <trkpt lat="47.10468" lon="6.16684">
        <ele>369</ele>
        <time>2011-04-09T10:57:02Z</time>
      </trkpt>
      <trkpt lat="47.1047" lon="6.167">
        <ele>371</ele>
        <time>2011-04-09T10:57:21Z</time>
      </trkpt>
      <trkpt lat="47.10466" lon="6.16709">
        <ele>372</ele>
        <time>2011-04-09T10:57:27Z</time>
      </trkpt>
      <trkpt lat="47.1046" lon="6.16735">
        <ele>377</ele>
        <time>2011-04-09T10:57:59Z</time>
      </trkpt>
      <trkpt lat="47.10455" lon="6.1677">
        <ele>381</ele>
        <time>2011-04-09T10:58:31Z</time>
      </trkpt>
      <trkpt lat="47.1045" lon="6.16808">
        <ele>384</ele>
        <time>2011-04-09T10:59:02Z</time>
      </trkpt>
      <trkpt lat="47.10444" lon="6.16832">
        <ele>389</ele>
        <time>2011-04-09T10:59:32Z</time>
      </trkpt>
      <trkpt lat="47.1044" lon="6.16871">
        <ele>396</ele>
        <time>2011-04-09T11:00:05Z</time>
      </trkpt>
      <trkpt lat="47.10442" lon="6.16911">
        <ele>400</ele>
        <time>2011-04-09T11:00:41Z</time>
      </trkpt>
      <trkpt lat="47.10441" lon="6.16917">
        <ele>401</ele>
        <time>2011-04-09T11:00:47Z</time>
      </trkpt>
      <trkpt lat="47.10446" lon="6.16921">
        <ele>401</ele>
        <time>2011-04-09T11:01:37Z</time>
      </trkpt>
      <trkpt lat="47.10444" lon="6.16923">
        <ele>401</ele>
        <time>2011-04-09T11:02:18Z</time>
      </trkpt>
      <trkpt lat="47.10436" lon="6.16933">
        <ele>404</ele>
        <time>2011-04-09T11:02:48Z</time>
      </trkpt>
      <trkpt lat="47.10438" lon="6.16945">
        <ele>409</ele>
        <time>2011-04-09T11:03:07Z</time>
      </trkpt>
      <trkpt lat="47.10447" lon="6.16981">
        <ele>418</ele>
        <time>2011-04-09T11:03:40Z</time>
      </trkpt>
      <trkpt lat="47.10449" lon="6.16988">
        <ele>420</ele>
        <time>2011-04-09T11:03:47Z</time>
      </trkpt>
      <trkpt lat="47.10449" lon="6.17021">
        <ele>423</ele>
        <time>2011-04-09T11:04:23Z</time>
      </trkpt>
      <trkpt lat="47.10449" lon="6.17028">
        <ele>424</ele>
        <time>2011-04-09T11:04:30Z</time>
      </trkpt>
      <trkpt lat="47.10446" lon="6.17034">
        <ele>425</ele>
        <time>2011-04-09T11:04:41Z</time>
      </trkpt>
      <trkpt lat="47.10446" lon="6.1707">
        <ele>426</ele>
        <time>2011-04-09T11:05:18Z</time>
      </trkpt>
      <trkpt lat="47.10442" lon="6.1709">
        <ele>426</ele>
        <time>2011-04-09T11:05:32Z</time>
      </trkpt>
      <trkpt lat="47.10438" lon="6.17104">
        <ele>426</ele>
        <time>2011-04-09T11:05:45Z</time>
      </trkpt>
      <trkpt lat="47.10431" lon="6.17114">
        <ele>427</ele>
        <time>2011-04-09T11:05:53Z</time>
      </trkpt>
      <trkpt lat="47.10424" lon="6.17114">
        <ele>428</ele>
        <time>2011-04-09T11:06:11Z</time>
      </trkpt>
      <trkpt lat="47.10422" lon="6.17122">
        <ele>430</ele>
        <time>2011-04-09T11:06:25Z</time>
      </trkpt>
      <trkpt lat="47.10414" lon="6.17116">
        <ele>431</ele>
        <time>2011-04-09T11:06:36Z</time>
      </trkpt>
      <trkpt lat="47.10397" lon="6.17099">
        <ele>435</ele>
        <time>2011-04-09T11:06:59Z</time>
      </trkpt>
      <trkpt lat="47.10379" lon="6.17099">
        <ele>437</ele>
        <time>2011-04-09T11:07:18Z</time>
      </trkpt>
      <trkpt lat="47.10345" lon="6.17121">
        <ele>443</ele>
        <time>2011-04-09T11:07:57Z</time>
      </trkpt>
      <trkpt lat="47.10335" lon="6.17132">
        <ele>445</ele>
        <time>2011-04-09T11:08:09Z</time>
      </trkpt>
      <trkpt lat="47.10328" lon="6.17175">
        <ele>452</ele>
        <time>2011-04-09T11:08:44Z</time>
      </trkpt>
      <trkpt lat="47.10312" lon="6.17218">
        <ele>458</ele>
        <time>2011-04-09T11:09:15Z</time>
      </trkpt>
      <trkpt lat="47.10296" lon="6.17281">
        <ele>462</ele>
        <time>2011-04-09T11:09:53Z</time>
      </trkpt>
      <trkpt lat="47.10278" lon="6.17322">
        <ele>464</ele>
        <time>2011-04-09T11:10:23Z</time>
      </trkpt>
      <trkpt lat="47.10269" lon="6.17328">
        <ele>464</ele>
        <time>2011-04-09T11:10:29Z</time>
      </trkpt>
      <trkpt lat="47.1026" lon="6.17328">
        <ele>464</ele>
        <time>2011-04-09T11:10:36Z</time>
      </trkpt>
      <trkpt lat="47.10231" lon="6.17302">
        <ele>465</ele>
        <time>2011-04-09T11:11:08Z</time>
      </trkpt>
      <trkpt lat="47.10199" lon="6.17268">
        <ele>466</ele>
        <time>2011-04-09T11:11:39Z</time>
      </trkpt>
      <trkpt lat="47.1016" lon="6.17231">
        <ele>469</ele>
        <time>2011-04-09T11:12:14Z</time>
      </trkpt>
      <trkpt lat="47.10123" lon="6.17221">
        <ele>471</ele>
        <time>2011-04-09T11:12:46Z</time>
      </trkpt>
      <trkpt lat="47.10087" lon="6.17209">
        <ele>473</ele>
        <time>2011-04-09T11:13:19Z</time>
      </trkpt>
      <trkpt lat="47.10037" lon="6.17183">
        <ele>477</ele>
        <time>2011-04-09T11:13:58Z</time>
      </trkpt>
      <trkpt lat="47.10011" lon="6.1717">
        <ele>481</ele>
        <time>2011-04-09T11:14:29Z</time>
      </trkpt>
      <trkpt lat="47.09998" lon="6.17153">
        <ele>483</ele>
        <time>2011-04-09T11:14:53Z</time>
      </trkpt>
      <trkpt lat="47.10003" lon="6.1716">
        <ele>484</ele>
        <time>2011-04-09T11:15:42Z</time>
      </trkpt>
      <trkpt lat="47.10009" lon="6.1717">
        <ele>483</ele>
        <time>2011-04-09T11:15:55Z</time>
      </trkpt>
      <trkpt lat="47.1" lon="6.17177">
        <ele>483</ele>
        <time>2011-04-09T11:16:12Z</time>
      </trkpt>
      <trkpt lat="47.09995" lon="6.17186">
        <ele>481</ele>
        <time>2011-04-09T11:16:40Z</time>
      </trkpt>
      <trkpt lat="47.0999" lon="6.17196">
        <ele>481</ele>
        <time>2011-04-09T11:16:52Z</time>
      </trkpt>
      <trkpt lat="47.09981" lon="6.17229">
        <ele>481</ele>
        <time>2011-04-09T11:17:17Z</time>
      </trkpt>
      <trkpt lat="47.09957" lon="6.17262">
        <ele>482</ele>
        <time>2011-04-09T11:17:45Z</time>
      </trkpt>
      <trkpt lat="47.09953" lon="6.17275">
        <ele>483</ele>
        <time>2011-04-09T11:17:57Z</time>
      </trkpt>
      <trkpt lat="47.09941" lon="6.17318">
        <ele>483</ele>
        <time>2011-04-09T11:18:26Z</time>
      </trkpt>
      <trkpt lat="47.09932" lon="6.17323">
        <ele>483</ele>
        <time>2011-04-09T11:18:34Z</time>
      </trkpt>
      <trkpt lat="47.09925" lon="6.17334">
        <ele>483</ele>
        <time>2011-04-09T11:18:43Z</time>
      </trkpt>
      <trkpt lat="47.09909" lon="6.17379">
        <ele>485</ele>
        <time>2011-04-09T11:19:14Z</time>
      </trkpt>
      <trkpt lat="47.09893" lon="6.17426">
        <ele>486</ele>
        <time>2011-04-09T11:19:48Z</time>
      </trkpt>
      <trkpt lat="47.09892" lon="6.17456">
        <ele>486</ele>
        <time>2011-04-09T11:20:05Z</time>
      </trkpt>
      <trkpt lat="47.09911" lon="6.175">
        <ele>483</ele>
        <time>2011-04-09T11:20:35Z</time>
      </trkpt>
      <trkpt lat="47.09939" lon="6.17545">
        <ele>481</ele>
        <time>2011-04-09T11:21:12Z</time>
      </trkpt>
      <trkpt lat="47.09974" lon="6.17582">
        <ele>480</ele>
        <time>2011-04-09T11:21:48Z</time>
      </trkpt>
      <trkpt lat="47.10007" lon="6.17608">
        <ele>479</ele>
        <time>2011-04-09T11:22:24Z</time>
      </trkpt>
      <trkpt lat="47.10045" lon="6.17624">
        <ele>477</ele>
        <time>2011-04-09T11:22:59Z</time>
      </trkpt>
      <trkpt lat="47.10055" lon="6.17626">
        <ele>477</ele>
        <time>2011-04-09T11:23:13Z</time>
      </trkpt>
      <trkpt lat="47.10073" lon="6.17641">
        <ele>477</ele>
        <time>2011-04-09T11:23:35Z</time>
      </trkpt>
      <trkpt lat="47.10085" lon="6.17645">
        <ele>478</ele>
        <time>2011-04-09T11:23:48Z</time>
      </trkpt>
      <trkpt lat="47.10093" lon="6.17654">
        <ele>479</ele>
        <time>2011-04-09T11:23:57Z</time>
      </trkpt>
      <trkpt lat="47.10122" lon="6.17666">
        <ele>482</ele>
        <time>2011-04-09T11:24:34Z</time>
      </trkpt>
      <trkpt lat="47.10141" lon="6.17668">
        <ele>483</ele>
        <time>2011-04-09T11:24:54Z</time>
      </trkpt>
      <trkpt lat="47.10146" lon="6.17664">
        <ele>485</ele>
        <time>2011-04-09T11:25:07Z</time>
      </trkpt>
      <trkpt lat="47.10153" lon="6.17656">
        <ele>485</ele>
        <time>2011-04-09T11:25:17Z</time>
      </trkpt>
      <trkpt lat="47.10167" lon="6.17616">
        <ele>491</ele>
        <time>2011-04-09T11:25:59Z</time>
      </trkpt>
      <trkpt lat="47.10173" lon="6.17595">
        <ele>493</ele>
        <time>2011-04-09T11:26:13Z</time>
      </trkpt>
      <trkpt lat="47.10191" lon="6.17589">
        <ele>495</ele>
        <time>2011-04-09T11:26:33Z</time>
      </trkpt>
      <trkpt lat="47.102" lon="6.17587">
        <ele>497</ele>
        <time>2011-04-09T11:26:42Z</time>
      </trkpt>
      <trkpt lat="47.10228" lon="6.17602">
        <ele>503</ele>
        <time>2011-04-09T11:27:11Z</time>
      </trkpt>
      <trkpt lat="47.10258" lon="6.17622">
        <ele>510</ele>
        <time>2011-04-09T11:27:43Z</time>
      </trkpt>
      <trkpt lat="47.1027" lon="6.17623">
        <ele>511</ele>
        <time>2011-04-09T11:27:54Z</time>
      </trkpt>
      <trkpt lat="47.10269" lon="6.17621">
        <ele>514</ele>
        <time>2011-04-09T11:28:09Z</time>
      </trkpt>
      <trkpt lat="47.10273" lon="6.17631">
        <ele>515</ele>
        <time>2011-04-09T11:28:26Z</time>
      </trkpt>
      <trkpt lat="47.10283" lon="6.17645">
        <ele>516</ele>
        <time>2011-04-09T11:28:41Z</time>
      </trkpt>
      <trkpt lat="47.10319" lon="6.17662">
        <ele>518</ele>
        <time>2011-04-09T11:29:13Z</time>
      </trkpt>
      <trkpt lat="47.10338" lon="6.17668">
        <ele>519</ele>
        <time>2011-04-09T11:29:31Z</time>
      </trkpt>
      <trkpt lat="47.10343" lon="6.17666">
        <ele>519</ele>
        <time>2011-04-09T11:29:44Z</time>
      </trkpt>
      <trkpt lat="47.10346" lon="6.17675">
        <ele>519</ele>
        <time>2011-04-09T11:30:11Z</time>
      </trkpt>
      <trkpt lat="47.10347" lon="6.17682">
        <ele>518</ele>
        <time>2011-04-09T11:30:16Z</time>
      </trkpt>
      <trkpt lat="47.10345" lon="6.17688">
        <ele>518</ele>
        <time>2011-04-09T11:30:26Z</time>
      </trkpt>
      <trkpt lat="47.10345" lon="6.17683">
        <ele>519</ele>
        <time>2011-04-09T11:31:49Z</time>
      </trkpt>
      <trkpt lat="47.10342" lon="6.17679">
        <ele>519</ele>
        <time>2011-04-09T11:32:21Z</time>
      </trkpt>
      <trkpt lat="47.10333" lon="6.17677">
        <ele>519</ele>
        <time>2011-04-09T11:33:54Z</time>
      </trkpt>
      <trkpt lat="47.10334" lon="6.17684">
        <ele>519</ele>
        <time>2011-04-09T11:34:11Z</time>
      </trkpt>
      <trkpt lat="47.10341" lon="6.17681">
        <ele>519</ele>
        <time>2011-04-09T11:34:36Z</time>
      </trkpt>
      <trkpt lat="47.10331" lon="6.17669">
        <ele>519</ele>
        <time>2011-04-09T11:37:39Z</time>
      </trkpt>
      <trkpt lat="47.10329" lon="6.17688">
        <ele>519</ele>
        <time>2011-04-09T11:38:11Z</time>
      </trkpt>
      <trkpt lat="47.10335" lon="6.17688">
        <ele>519</ele>
        <time>2011-04-09T11:38:50Z</time>
      </trkpt>
      <trkpt lat="47.10337" lon="6.17695">
        <ele>519</ele>
        <time>2011-04-09T11:38:52Z</time>
      </trkpt>
      <trkpt lat="47.10339" lon="6.17682">
        <ele>519</ele>
        <time>2011-04-09T11:39:37Z</time>
      </trkpt>
      <trkpt lat="47.10339" lon="6.17669">
        <ele>519</ele>
        <time>2011-04-09T11:39:57Z</time>
      </trkpt>
      <trkpt lat="47.1034" lon="6.17674">
        <ele>519</ele>
        <time>2011-04-09T11:40:56Z</time>
      </trkpt>
      <trkpt lat="47.10343" lon="6.17679">
        <ele>519</ele>
        <time>2011-04-09T11:41:05Z</time>
      </trkpt>
      <trkpt lat="47.10347" lon="6.17683">
        <ele>519</ele>
        <time>2011-04-09T11:41:27Z</time>
      </trkpt>
      <trkpt lat="47.10346" lon="6.1768">
        <ele>519</ele>
        <time>2011-04-09T11:42:02Z</time>
      </trkpt>
      <trkpt lat="47.10338" lon="6.17677">
        <ele>518</ele>
        <time>2011-04-09T11:42:55Z</time>
      </trkpt>
      <trkpt lat="47.10336" lon="6.17687">
        <ele>520</ele>
        <time>2011-04-09T11:44:23Z</time>
      </trkpt>
      <trkpt lat="47.10342" lon="6.17689">
        <ele>521</ele>
        <time>2011-04-09T11:45:41Z</time>
      </trkpt>
      <trkpt lat="47.10342" lon="6.17682">
        <ele>521</ele>
        <time>2011-04-09T11:47:15Z</time>
      </trkpt>
      <trkpt lat="47.10337" lon="6.17681">
        <ele>518</ele>
        <time>2011-04-09T11:47:59Z</time>
      </trkpt>
      <trkpt lat="47.1033" lon="6.17667">
        <ele>517</ele>
        <time>2011-04-09T11:48:55Z</time>
      </trkpt>
      <trkpt lat="47.10329" lon="6.17653">
        <ele>517</ele>
        <time>2011-04-09T11:49:02Z</time>
      </trkpt>
      <trkpt lat="47.10338" lon="6.17659">
        <ele>517</ele>
        <time>2011-04-09T11:49:12Z</time>
      </trkpt>
      <trkpt lat="47.10345" lon="6.1767">
        <ele>517</ele>
        <time>2011-04-09T11:49:24Z</time>
      </trkpt>
      <trkpt lat="47.10343" lon="6.1769">
        <ele>518</ele>
        <time>2011-04-09T11:49:43Z</time>
      </trkpt>
      <trkpt lat="47.10342" lon="6.17688">
        <ele>519</ele>
        <time>2011-04-09T11:51:05Z</time>
      </trkpt>
      <trkpt lat="47.10342" lon="6.17681">
        <ele>519</ele>
        <time>2011-04-09T11:51:36Z</time>
      </trkpt>
      <trkpt lat="47.10348" lon="6.17683">
        <ele>520</ele>
        <time>2011-04-09T11:56:46Z</time>
      </trkpt>
      <trkpt lat="47.10345" lon="6.17688">
        <ele>520</ele>
        <time>2011-04-09T11:57:08Z</time>
      </trkpt>
      <trkpt lat="47.10347" lon="6.17686">
        <ele>522</ele>
        <time>2011-04-09T12:00:46Z</time>
      </trkpt>
      <trkpt lat="47.10345" lon="6.17683">
        <ele>523</ele>
        <time>2011-04-09T12:01:32Z</time>
      </trkpt>
      <trkpt lat="47.10348" lon="6.17686">
        <ele>524</ele>
        <time>2011-04-09T12:08:30Z</time>
      </trkpt>
      <trkpt lat="47.10348" lon="6.17685">
        <ele>524</ele>
        <time>2011-04-09T12:09:03Z</time>
      </trkpt>
      <trkpt lat="47.10344" lon="6.1769">
        <ele>525</ele>
        <time>2011-04-09T12:10:13Z</time>
      </trkpt>
      <trkpt lat="47.1034" lon="6.17689">
        <ele>525</ele>
        <time>2011-04-09T12:10:34Z</time>
      </trkpt>
      <trkpt lat="47.10342" lon="6.17683">
        <ele>525</ele>
        <time>2011-04-09T12:11:11Z</time>
      </trkpt>
      <trkpt lat="47.1035" lon="6.17674">
        <ele>524</ele>
        <time>2011-04-09T12:11:42Z</time>
      </trkpt>
      <trkpt lat="47.10348" lon="6.17668">
        <ele>524</ele>
        <time>2011-04-09T12:12:07Z</time>
      </trkpt>
      <trkpt lat="47.10344" lon="6.17672">
        <ele>523</ele>
        <time>2011-04-09T12:12:43Z</time>
      </trkpt>
      <trkpt lat="47.10345" lon="6.17679">
        <ele>521</ele>
        <time>2011-04-09T12:13:33Z</time>
      </trkpt>
      <trkpt lat="47.1035" lon="6.1768">
        <ele>521</ele>
        <time>2011-04-09T12:13:40Z</time>
      </trkpt>
      <trkpt lat="47.10347" lon="6.17665">
        <ele>521</ele>
        <time>2011-04-09T12:14:33Z</time>
      </trkpt>
      <trkpt lat="47.10352" lon="6.17653">
        <ele>521</ele>
        <time>2011-04-09T12:15:28Z</time>
      </trkpt>
      <trkpt lat="47.10359" lon="6.17644">
        <ele>521</ele>
        <time>2011-04-09T12:15:42Z</time>
      </trkpt>
      <trkpt lat="47.10397" lon="6.17628">
        <ele>521</ele>
        <time>2011-04-09T12:16:19Z</time>
      </trkpt>
      <trkpt lat="47.10409" lon="6.17605">
        <ele>522</ele>
        <time>2011-04-09T12:16:35Z</time>
      </trkpt>
      <trkpt lat="47.10419" lon="6.17572">
        <ele>522</ele>
        <time>2011-04-09T12:16:51Z</time>
      </trkpt>
      <trkpt lat="47.10418" lon="6.17509">
        <ele>521</ele>
        <time>2011-04-09T12:17:29Z</time>
      </trkpt>
      <trkpt lat="47.10419" lon="6.17455">
        <ele>520</ele>
        <time>2011-04-09T12:17:58Z</time>
      </trkpt>
      <trkpt lat="47.10434" lon="6.17421">
        <ele>520</ele>
        <time>2011-04-09T12:18:19Z</time>
      </trkpt>
      <trkpt lat="47.10439" lon="6.17388">
        <ele>519</ele>
        <time>2011-04-09T12:18:36Z</time>
      </trkpt>
      <trkpt lat="47.10468" lon="6.17348">
        <ele>517</ele>
        <time>2011-04-09T12:19:10Z</time>
      </trkpt>
      <trkpt lat="47.10495" lon="6.17292">
        <ele>514</ele>
        <time>2011-04-09T12:19:46Z</time>
      </trkpt>
      <trkpt lat="47.10519" lon="6.1724">
        <ele>512</ele>
        <time>2011-04-09T12:20:18Z</time>
      </trkpt>
      <trkpt lat="47.10542" lon="6.17196">
        <ele>511</ele>
        <time>2011-04-09T12:20:52Z</time>
      </trkpt>
      <trkpt lat="47.10563" lon="6.17139">
        <ele>511</ele>
        <time>2011-04-09T12:21:24Z</time>
      </trkpt>
      <trkpt lat="47.10583" lon="6.1708">
        <ele>511</ele>
        <time>2011-04-09T12:21:57Z</time>
      </trkpt>
      <trkpt lat="47.10601" lon="6.17033">
        <ele>511</ele>
        <time>2011-04-09T12:22:27Z</time>
      </trkpt>
      <trkpt lat="47.10621" lon="6.16981">
        <ele>510</ele>
        <time>2011-04-09T12:22:59Z</time>
      </trkpt>
      <trkpt lat="47.10644" lon="6.16925">
        <ele>510</ele>
        <time>2011-04-09T12:23:32Z</time>
      </trkpt>
      <trkpt lat="47.10661" lon="6.16864">
        <ele>510</ele>
        <time>2011-04-09T12:24:07Z</time>
      </trkpt>
      <trkpt lat="47.10679" lon="6.16814">
        <ele>510</ele>
        <time>2011-04-09T12:24:40Z</time>
      </trkpt>
      <trkpt lat="47.10702" lon="6.16763">
        <ele>508</ele>
        <time>2011-04-09T12:25:13Z</time>
      </trkpt>
      <trkpt lat="47.1072" lon="6.16735">
        <ele>507</ele>
        <time>2011-04-09T12:25:35Z</time>
      </trkpt>
      <trkpt lat="47.10724" lon="6.16737">
        <ele>507</ele>
        <time>2011-04-09T12:25:39Z</time>
      </trkpt>
      <trkpt lat="47.1075" lon="6.16728">
        <ele>506</ele>
        <time>2011-04-09T12:26:12Z</time>
      </trkpt>
      <trkpt lat="47.10783" lon="6.16721">
        <ele>506</ele>
        <time>2011-04-09T12:26:49Z</time>
      </trkpt>
      <trkpt lat="47.10793" lon="6.1672">
        <ele>506</ele>
        <time>2011-04-09T12:26:55Z</time>
      </trkpt>
      <trkpt lat="47.10811" lon="6.16729">
        <ele>508</ele>
        <time>2011-04-09T12:27:13Z</time>
      </trkpt>
      <trkpt lat="47.10817" lon="6.16739">
        <ele>508</ele>
        <time>2011-04-09T12:27:23Z</time>
      </trkpt>
      <trkpt lat="47.10822" lon="6.16752">
        <ele>509</ele>
        <time>2011-04-09T12:27:34Z</time>
      </trkpt>
      <trkpt lat="47.10818" lon="6.16778">
        <ele>510</ele>
        <time>2011-04-09T12:27:49Z</time>
      </trkpt>
      <trkpt lat="47.10829" lon="6.16816">
        <ele>513</ele>
        <time>2011-04-09T12:28:21Z</time>
      </trkpt>
      <trkpt lat="47.10833" lon="6.16821">
        <ele>513</ele>
        <time>2011-04-09T12:28:26Z</time>
      </trkpt>
      <trkpt lat="47.10843" lon="6.16823">
        <ele>513</ele>
        <time>2011-04-09T12:28:36Z</time>
      </trkpt>
      <trkpt lat="47.10874" lon="6.16865">
        <ele>515</ele>
        <time>2011-04-09T12:29:12Z</time>
      </trkpt>
      <trkpt lat="47.10898" lon="6.16911">
        <ele>517</ele>
        <time>2011-04-09T12:29:46Z</time>
      </trkpt>
      <trkpt lat="47.10907" lon="6.16962">
        <ele>520</ele>
        <time>2011-04-09T12:30:18Z</time>
      </trkpt>
      <trkpt lat="47.10907" lon="6.17011">
        <ele>523</ele>
        <time>2011-04-09T12:30:56Z</time>
      </trkpt>
      <trkpt lat="47.10918" lon="6.17064">
        <ele>528</ele>
        <time>2011-04-09T12:31:36Z</time>
      </trkpt>
      <trkpt lat="47.10916" lon="6.17117">
        <ele>532</ele>
        <time>2011-04-09T12:32:08Z</time>
      </trkpt>
      <trkpt lat="47.10908" lon="6.17158">
        <ele>536</ele>
        <time>2011-04-09T12:32:38Z</time>
      </trkpt>
      <trkpt lat="47.10904" lon="6.17194">
        <ele>540</ele>
        <time>2011-04-09T12:33:13Z</time>
      </trkpt>
      <trkpt lat="47.10896" lon="6.17248">
        <ele>544</ele>
        <time>2011-04-09T12:33:52Z</time>
      </trkpt>
      <trkpt lat="47.1088" lon="6.17306">
        <ele>553</ele>
        <time>2011-04-09T12:34:36Z</time>
      </trkpt>
      <trkpt lat="47.1087" lon="6.17364">
        <ele>559</ele>
        <time>2011-04-09T12:35:14Z</time>
      </trkpt>
      <trkpt lat="47.1087" lon="6.17415">
        <ele>562</ele>
        <time>2011-04-09T12:35:44Z</time>
      </trkpt>
      <trkpt lat="47.10874" lon="6.17427">
        <ele>563</ele>
        <time>2011-04-09T12:35:52Z</time>
      </trkpt>
      <trkpt lat="47.10875" lon="6.1744">
        <ele>563</ele>
        <time>2011-04-09T12:35:59Z</time>
      </trkpt>
      <trkpt lat="47.10865" lon="6.1747">
        <ele>565</ele>
        <time>2011-04-09T12:36:16Z</time>
      </trkpt>
      <trkpt lat="47.10867" lon="6.17527">
        <ele>569</ele>
        <time>2011-04-09T12:36:53Z</time>
      </trkpt>
      <trkpt lat="47.10886" lon="6.17576">
        <ele>570</ele>
        <time>2011-04-09T12:37:28Z</time>
      </trkpt>
      <trkpt lat="47.1089" lon="6.17638">
        <ele>572</ele>
        <time>2011-04-09T12:37:59Z</time>
      </trkpt>
      <trkpt lat="47.10887" lon="6.1772">
        <ele>575</ele>
        <time>2011-04-09T12:38:37Z</time>
      </trkpt>
      <trkpt lat="47.1089" lon="6.17743">
        <ele>575</ele>
        <time>2011-04-09T12:38:49Z</time>
      </trkpt>
      <trkpt lat="47.10897" lon="6.17753">
        <ele>576</ele>
        <time>2011-04-09T12:38:57Z</time>
      </trkpt>
      <trkpt lat="47.10933" lon="6.17805">
        <ele>578</ele>
        <time>2011-04-09T12:39:33Z</time>
      </trkpt>
      <trkpt lat="47.10941" lon="6.17814">
        <ele>579</ele>
        <time>2011-04-09T12:39:41Z</time>
      </trkpt>
      <trkpt lat="47.10946" lon="6.17827">
        <ele>579</ele>
        <time>2011-04-09T12:39:49Z</time>
      </trkpt>
      <trkpt lat="47.10982" lon="6.17865">
        <ele>583</ele>
        <time>2011-04-09T12:40:20Z</time>
      </trkpt>
      <trkpt lat="47.11006" lon="6.17886">
        <ele>586</ele>
        <time>2011-04-09T12:40:44Z</time>
      </trkpt>
      <trkpt lat="47.11011" lon="6.17897">
        <ele>587</ele>
        <time>2011-04-09T12:40:51Z</time>
      </trkpt>
      <trkpt lat="47.11025" lon="6.17952">
        <ele>588</ele>
        <time>2011-04-09T12:41:23Z</time>
      </trkpt>
      <trkpt lat="47.11029" lon="6.17965">
        <ele>588</ele>
        <time>2011-04-09T12:41:30Z</time>
      </trkpt>
      <trkpt lat="47.11057" lon="6.18">
        <ele>589</ele>
        <time>2011-04-09T12:42:00Z</time>
      </trkpt>
      <trkpt lat="47.11068" lon="6.18024">
        <ele>588</ele>
        <time>2011-04-09T12:42:15Z</time>
      </trkpt>
      <trkpt lat="47.1107" lon="6.18037">
        <ele>588</ele>
        <time>2011-04-09T12:42:22Z</time>
      </trkpt>
      <trkpt lat="47.11084" lon="6.18055">
        <ele>587</ele>
        <time>2011-04-09T12:42:38Z</time>
      </trkpt>
      <trkpt lat="47.11119" lon="6.18075">
        <ele>586</ele>
        <time>2011-04-09T12:43:10Z</time>
      </trkpt>
      <trkpt lat="47.11166" lon="6.18105">
        <ele>586</ele>
        <time>2011-04-09T12:43:58Z</time>
      </trkpt>
      <trkpt lat="47.11214" lon="6.18114">
        <ele>585</ele>
        <time>2011-04-09T12:44:31Z</time>
      </trkpt>
      <trkpt lat="47.11253" lon="6.18128">
        <ele>586</ele>
        <time>2011-04-09T12:45:09Z</time>
      </trkpt>
      <trkpt lat="47.11289" lon="6.18147">
        <ele>587</ele>
        <time>2011-04-09T12:45:44Z</time>
      </trkpt>
      <trkpt lat="47.11316" lon="6.18156">
        <ele>588</ele>
        <time>2011-04-09T12:46:00Z</time>
      </trkpt>
      <trkpt lat="47.11354" lon="6.18181">
        <ele>591</ele>
        <time>2011-04-09T12:46:36Z</time>
      </trkpt>
      <trkpt lat="47.11401" lon="6.18196">
        <ele>592</ele>
        <time>2011-04-09T12:47:12Z</time>
      </trkpt>
      <trkpt lat="47.11437" lon="6.18208">
        <ele>594</ele>
        <time>2011-04-09T12:47:47Z</time>
      </trkpt>
      <trkpt lat="47.11442" lon="6.18204">
        <ele>594</ele>
        <time>2011-04-09T12:47:48Z</time>
      </trkpt>
      <trkpt lat="47.11446" lon="6.18204">
        <ele>597</ele>
        <time>2011-04-09T12:48:38Z</time>
      </trkpt>
      <trkpt lat="47.11481" lon="6.18212">
        <ele>602</ele>
        <time>2011-04-09T12:49:18Z</time>
      </trkpt>
      <trkpt lat="47.11499" lon="6.18222">
        <ele>602</ele>
        <time>2011-04-09T12:49:36Z</time>
      </trkpt>
      <trkpt lat="47.11527" lon="6.1824">
        <ele>601</ele>
        <time>2011-04-09T12:50:04Z</time>
      </trkpt>
      <trkpt lat="47.11558" lon="6.18294">
        <ele>598</ele>
        <time>2011-04-09T12:50:38Z</time>
      </trkpt>
      <trkpt lat="47.11581" lon="6.18342">
        <ele>595</ele>
        <time>2011-04-09T12:51:10Z</time>
      </trkpt>
      <trkpt lat="47.116" lon="6.1839">
        <ele>592</ele>
        <time>2011-04-09T12:51:41Z</time>
      </trkpt>
      <trkpt lat="47.1163" lon="6.18444">
        <ele>589</ele>
        <time>2011-04-09T12:52:18Z</time>
      </trkpt>
      <trkpt lat="47.11673" lon="6.18483">
        <ele>587</ele>
        <time>2011-04-09T12:52:56Z</time>
      </trkpt>
      <trkpt lat="47.11708" lon="6.18518">
        <ele>585</ele>
        <time>2011-04-09T12:53:28Z</time>
      </trkpt>
      <trkpt lat="47.11748" lon="6.18552">
        <ele>583</ele>
        <time>2011-04-09T12:54:00Z</time>
      </trkpt>
      <trkpt lat="47.11785" lon="6.18588">
        <ele>581</ele>
        <time>2011-04-09T12:54:33Z</time>
      </trkpt>
      <trkpt lat="47.11815" lon="6.18599">
        <ele>579</ele>
        <time>2011-04-09T12:54:59Z</time>
      </trkpt>
      <trkpt lat="47.11858" lon="6.18613">
        <ele>579</ele>
        <time>2011-04-09T12:55:35Z</time>
      </trkpt>
      <trkpt lat="47.11902" lon="6.18632">
        <ele>580</ele>
        <time>2011-04-09T12:56:07Z</time>
      </trkpt>
      <trkpt lat="47.11938" lon="6.18655">
        <ele>578</ele>
        <time>2011-04-09T12:56:38Z</time>
      </trkpt>
      <trkpt lat="47.11966" lon="6.18692">
        <ele>578</ele>
        <time>2011-04-09T12:57:09Z</time>
      </trkpt>
      <trkpt lat="47.11999" lon="6.18742">
        <ele>578</ele>
        <time>2011-04-09T12:57:45Z</time>
      </trkpt>
      <trkpt lat="47.12036" lon="6.1878">
        <ele>579</ele>
        <time>2011-04-09T12:58:19Z</time>
      </trkpt>
      <trkpt lat="47.12077" lon="6.18821">
        <ele>579</ele>
        <time>2011-04-09T12:58:54Z</time>
      </trkpt>
      <trkpt lat="47.12089" lon="6.18833">
        <ele>579</ele>
        <time>2011-04-09T12:59:04Z</time>
      </trkpt>
      <trkpt lat="47.12121" lon="6.1888">
        <ele>578</ele>
        <time>2011-04-09T12:59:41Z</time>
      </trkpt>
      <trkpt lat="47.12149" lon="6.18928">
        <ele>578</ele>
        <time>2011-04-09T13:00:13Z</time>
      </trkpt>
      <trkpt lat="47.12152" lon="6.18933">
        <ele>578</ele>
        <time>2011-04-09T13:00:17Z</time>
      </trkpt>
      <trkpt lat="47.12183" lon="6.18986">
        <ele>579</ele>
        <time>2011-04-09T13:00:50Z</time>
      </trkpt>
      <trkpt lat="47.12204" lon="6.19043">
        <ele>580</ele>
        <time>2011-04-09T13:01:25Z</time>
      </trkpt>
      <trkpt lat="47.12221" lon="6.19098">
        <ele>579</ele>
        <time>2011-04-09T13:01:55Z</time>
      </trkpt>
      <trkpt lat="47.1223" lon="6.19115">
        <ele>579</ele>
        <time>2011-04-09T13:02:09Z</time>
      </trkpt>
      <trkpt lat="47.12253" lon="6.1912">
        <ele>578</ele>
        <time>2011-04-09T13:02:29Z</time>
      </trkpt>
      <trkpt lat="47.12299" lon="6.19124">
        <ele>580</ele>
        <time>2011-04-09T13:03:02Z</time>
      </trkpt>
      <trkpt lat="47.12333" lon="6.19149">
        <ele>580</ele>
        <time>2011-04-09T13:03:33Z</time>
      </trkpt>
      <trkpt lat="47.12359" lon="6.19203">
        <ele>580</ele>
        <time>2011-04-09T13:04:07Z</time>
      </trkpt>
      <trkpt lat="47.12367" lon="6.19222">
        <ele>580</ele>
        <time>2011-04-09T13:04:19Z</time>
      </trkpt>
      <trkpt lat="47.12368" lon="6.19259">
        <ele>579</ele>
        <time>2011-04-09T13:04:40Z</time>
      </trkpt>
      <trkpt lat="47.12372" lon="6.19265">
        <ele>579</ele>
        <time>2011-04-09T13:04:45Z</time>
      </trkpt>
      <trkpt lat="47.12377" lon="6.19266">
        <ele>579</ele>
        <time>2011-04-09T13:04:50Z</time>
      </trkpt>
      <trkpt lat="47.12405" lon="6.19256">
        <ele>578</ele>
        <time>2011-04-09T13:05:16Z</time>
      </trkpt>
      <trkpt lat="47.12434" lon="6.19203">
        <ele>575</ele>
        <time>2011-04-09T13:05:49Z</time>
      </trkpt>
      <trkpt lat="47.12455" lon="6.19158">
        <ele>573</ele>
        <time>2011-04-09T13:06:20Z</time>
      </trkpt>
      <trkpt lat="47.12481" lon="6.19112">
        <ele>572</ele>
        <time>2011-04-09T13:06:50Z</time>
      </trkpt>
      <trkpt lat="47.12507" lon="6.19064">
        <ele>569</ele>
        <time>2011-04-09T13:07:22Z</time>
      </trkpt>
      <trkpt lat="47.12537" lon="6.19014">
        <ele>567</ele>
        <time>2011-04-09T13:07:55Z</time>
      </trkpt>
      <trkpt lat="47.12558" lon="6.18969">
        <ele>563</ele>
        <time>2011-04-09T13:08:25Z</time>
      </trkpt>
      <trkpt lat="47.12594" lon="6.18921">
        <ele>560</ele>
        <time>2011-04-09T13:09:00Z</time>
      </trkpt>
      <trkpt lat="47.126" lon="6.18893">
        <ele>559</ele>
        <time>2011-04-09T13:09:16Z</time>
      </trkpt>
      <trkpt lat="47.12631" lon="6.18841">
        <ele>557</ele>
        <time>2011-04-09T13:09:53Z</time>
      </trkpt>
      <trkpt lat="47.12656" lon="6.18782">
        <ele>553</ele>
        <time>2011-04-09T13:10:29Z</time>
      </trkpt>
      <trkpt lat="47.12665" lon="6.18766">
        <ele>552</ele>
        <time>2011-04-09T13:10:39Z</time>
      </trkpt>
      <trkpt lat="47.12665" lon="6.18759">
        <ele>552</ele>
        <time>2011-04-09T13:10:44Z</time>
      </trkpt>
      <trkpt lat="47.12667" lon="6.18753">
        <ele>552</ele>
        <time>2011-04-09T13:10:48Z</time>
      </trkpt>
      <trkpt lat="47.12697" lon="6.18712">
        <ele>549</ele>
        <time>2011-04-09T13:11:30Z</time>
      </trkpt>
      <trkpt lat="47.12722" lon="6.18669">
        <ele>546</ele>
        <time>2011-04-09T13:12:02Z</time>
      </trkpt>
      <trkpt lat="47.12749" lon="6.18622">
        <ele>542</ele>
        <time>2011-04-09T13:12:34Z</time>
      </trkpt>
      <trkpt lat="47.12777" lon="6.18574">
        <ele>540</ele>
        <time>2011-04-09T13:13:05Z</time>
      </trkpt>
      <trkpt lat="47.12803" lon="6.18527">
        <ele>539</ele>
        <time>2011-04-09T13:13:40Z</time>
      </trkpt>
      <trkpt lat="47.12841" lon="6.18485">
        <ele>537</ele>
        <time>2011-04-09T13:14:18Z</time>
      </trkpt>
      <trkpt lat="47.1287" lon="6.18427">
        <ele>534</ele>
        <time>2011-04-09T13:14:50Z</time>
      </trkpt>
      <trkpt lat="47.12873" lon="6.18358">
        <ele>532</ele>
        <time>2011-04-09T13:15:22Z</time>
      </trkpt>
      <trkpt lat="47.12884" lon="6.18297">
        <ele>532</ele>
        <time>2011-04-09T13:15:55Z</time>
      </trkpt>
      <trkpt lat="47.12883" lon="6.18262">
        <ele>532</ele>
        <time>2011-04-09T13:16:29Z</time>
      </trkpt>
      <trkpt lat="47.12874" lon="6.1823">
        <ele>532</ele>
        <time>2011-04-09T13:16:50Z</time>
      </trkpt>
      <trkpt lat="47.12874" lon="6.18231">
        <ele>534</ele>
        <time>2011-04-09T13:17:49Z</time>
      </trkpt>
      <trkpt lat="47.12865" lon="6.18224">
        <ele>534</ele>
        <time>2011-04-09T13:17:59Z</time>
      </trkpt>
      <trkpt lat="47.12861" lon="6.18212">
        <ele>534</ele>
        <time>2011-04-09T13:18:08Z</time>
      </trkpt>
      <trkpt lat="47.12859" lon="6.18205">
        <ele>533</ele>
        <time>2011-04-09T13:18:12Z</time>
      </trkpt>
      <trkpt lat="47.12867" lon="6.1814">
        <ele>531</ele>
        <time>2011-04-09T13:18:43Z</time>
      </trkpt>
      <trkpt lat="47.12866" lon="6.18085">
        <ele>530</ele>
        <time>2011-04-09T13:19:14Z</time>
      </trkpt>
      <trkpt lat="47.12856" lon="6.18016">
        <ele>529</ele>
        <time>2011-04-09T13:19:52Z</time>
      </trkpt>
      <trkpt lat="47.12819" lon="6.17956">
        <ele>527</ele>
        <time>2011-04-09T13:20:28Z</time>
      </trkpt>
      <trkpt lat="47.12808" lon="6.17933">
        <ele>527</ele>
        <time>2011-04-09T13:20:46Z</time>
      </trkpt>
      <trkpt lat="47.12811" lon="6.17929">
        <ele>526</ele>
        <time>2011-04-09T13:23:08Z</time>
      </trkpt>
      <trkpt lat="47.12811" lon="6.17922">
        <ele>528</ele>
        <time>2011-04-09T13:24:49Z</time>
      </trkpt>
      <trkpt lat="47.12815" lon="6.17924">
        <ele>528</ele>
        <time>2011-04-09T13:25:53Z</time>
      </trkpt>
      <trkpt lat="47.12813" lon="6.17925">
        <ele>527</ele>
        <time>2011-04-09T13:27:31Z</time>
      </trkpt>
      <trkpt lat="47.12808" lon="6.17927">
        <ele>527</ele>
        <time>2011-04-09T13:28:00Z</time>
      </trkpt>
      <trkpt lat="47.12809" lon="6.17924">
        <ele>531</ele>
        <time>2011-04-09T13:30:48Z</time>
      </trkpt>
      <trkpt lat="47.12797" lon="6.17924">
        <ele>531</ele>
        <time>2011-04-09T13:31:24Z</time>
      </trkpt>
      <trkpt lat="47.12794" lon="6.17918">
        <ele>531</ele>
        <time>2011-04-09T13:31:29Z</time>
      </trkpt>
      <trkpt lat="47.12767" lon="6.1788">
        <ele>529</ele>
        <time>2011-04-09T13:32:03Z</time>
      </trkpt>
      <trkpt lat="47.12763" lon="6.17875">
        <ele>529</ele>
        <time>2011-04-09T13:32:08Z</time>
      </trkpt>
      <trkpt lat="47.12734" lon="6.17845">
        <ele>527</ele>
        <time>2011-04-09T13:32:39Z</time>
      </trkpt>
      <trkpt lat="47.12706" lon="6.17807">
        <ele>525</ele>
        <time>2011-04-09T13:33:09Z</time>
      </trkpt>
      <trkpt lat="47.12686" lon="6.17763">
        <ele>523</ele>
        <time>2011-04-09T13:33:41Z</time>
      </trkpt>
      <trkpt lat="47.12665" lon="6.17719">
        <ele>524</ele>
        <time>2011-04-09T13:34:11Z</time>
      </trkpt>
      <trkpt lat="47.12648" lon="6.17665">
        <ele>526</ele>
        <time>2011-04-09T13:34:44Z</time>
      </trkpt>
      <trkpt lat="47.12629" lon="6.17601">
        <ele>528</ele>
        <time>2011-04-09T13:35:19Z</time>
      </trkpt>
      <trkpt lat="47.12606" lon="6.17539">
        <ele>529</ele>
        <time>2011-04-09T13:35:55Z</time>
      </trkpt>
      <trkpt lat="47.12589" lon="6.17481">
        <ele>530</ele>
        <time>2011-04-09T13:36:28Z</time>
      </trkpt>
      <trkpt lat="47.12574" lon="6.17411">
        <ele>531</ele>
        <time>2011-04-09T13:37:03Z</time>
      </trkpt>
      <trkpt lat="47.12553" lon="6.17366">
        <ele>531</ele>
        <time>2011-04-09T13:37:34Z</time>
      </trkpt>
      <trkpt lat="47.1253" lon="6.17321">
        <ele>530</ele>
        <time>2011-04-09T13:38:04Z</time>
      </trkpt>
      <trkpt lat="47.1252" lon="6.17305">
        <ele>529</ele>
        <time>2011-04-09T13:38:14Z</time>
      </trkpt>
      <trkpt lat="47.12513" lon="6.17247">
        <ele>528</ele>
        <time>2011-04-09T13:38:39Z</time>
      </trkpt>
      <trkpt lat="47.12497" lon="6.17215">
        <ele>527</ele>
        <time>2011-04-09T13:38:51Z</time>
      </trkpt>
      <trkpt lat="47.12487" lon="6.17159">
        <ele>527</ele>
        <time>2011-04-09T13:39:22Z</time>
      </trkpt>
      <trkpt lat="47.12468" lon="6.17094">
        <ele>526</ele>
        <time>2011-04-09T13:39:58Z</time>
      </trkpt>
      <trkpt lat="47.12447" lon="6.17036">
        <ele>525</ele>
        <time>2011-04-09T13:40:29Z</time>
      </trkpt>
      <trkpt lat="47.12455" lon="6.16996">
        <ele>525</ele>
        <time>2011-04-09T13:40:48Z</time>
      </trkpt>
      <trkpt lat="47.1245" lon="6.16985">
        <ele>525</ele>
        <time>2011-04-09T13:40:54Z</time>
      </trkpt>
      <trkpt lat="47.12428" lon="6.16924">
        <ele>524</ele>
        <time>2011-04-09T13:41:26Z</time>
      </trkpt>
      <trkpt lat="47.12421" lon="6.1686">
        <ele>523</ele>
        <time>2011-04-09T13:42:03Z</time>
      </trkpt>
      <trkpt lat="47.1242" lon="6.168">
        <ele>523</ele>
        <time>2011-04-09T13:42:36Z</time>
      </trkpt>
      <trkpt lat="47.12408" lon="6.16732">
        <ele>523</ele>
        <time>2011-04-09T13:43:09Z</time>
      </trkpt>
      <trkpt lat="47.12392" lon="6.16673">
        <ele>524</ele>
        <time>2011-04-09T13:43:39Z</time>
      </trkpt>
      <trkpt lat="47.12378" lon="6.16612">
        <ele>527</ele>
        <time>2011-04-09T13:44:12Z</time>
      </trkpt>
      <trkpt lat="47.12365" lon="6.1656">
        <ele>527</ele>
        <time>2011-04-09T13:44:44Z</time>
      </trkpt>
      <trkpt lat="47.12353" lon="6.16505">
        <ele>527</ele>
        <time>2011-04-09T13:45:15Z</time>
      </trkpt>
      <trkpt lat="47.12341" lon="6.1645">
        <ele>529</ele>
        <time>2011-04-09T13:45:45Z</time>
      </trkpt>
      <trkpt lat="47.12342" lon="6.16386">
        <ele>529</ele>
        <time>2011-04-09T13:46:17Z</time>
      </trkpt>
      <trkpt lat="47.1235" lon="6.16313">
        <ele>529</ele>
        <time>2011-04-09T13:46:53Z</time>
      </trkpt>
      <trkpt lat="47.1237" lon="6.16254">
        <ele>529</ele>
        <time>2011-04-09T13:47:28Z</time>
      </trkpt>
      <trkpt lat="47.12392" lon="6.16199">
        <ele>529</ele>
        <time>2011-04-09T13:48:01Z</time>
      </trkpt>
      <trkpt lat="47.12402" lon="6.16145">
        <ele>529</ele>
        <time>2011-04-09T13:48:32Z</time>
      </trkpt>
      <trkpt lat="47.12416" lon="6.16088">
        <ele>529</ele>
        <time>2011-04-09T13:49:03Z</time>
      </trkpt>
      <trkpt lat="47.12425" lon="6.16049">
        <ele>530</ele>
        <time>2011-04-09T13:49:28Z</time>
      </trkpt>
      <trkpt lat="47.1243" lon="6.16008">
        <ele>532</ele>
        <time>2011-04-09T13:49:58Z</time>
      </trkpt>
      <trkpt lat="47.12415" lon="6.15952">
        <ele>533</ele>
        <time>2011-04-09T13:50:30Z</time>
      </trkpt>
      <trkpt lat="47.12396" lon="6.15897">
        <ele>535</ele>
        <time>2011-04-09T13:51:02Z</time>
      </trkpt>
      <trkpt lat="47.12378" lon="6.15843">
        <ele>536</ele>
        <time>2011-04-09T13:51:33Z</time>
      </trkpt>
      <trkpt lat="47.12363" lon="6.15788">
        <ele>537</ele>
        <time>2011-04-09T13:52:03Z</time>
      </trkpt>
      <trkpt lat="47.12344" lon="6.15729">
        <ele>538</ele>
        <time>2011-04-09T13:52:36Z</time>
      </trkpt>
      <trkpt lat="47.12326" lon="6.15672">
        <ele>539</ele>
        <time>2011-04-09T13:53:08Z</time>
      </trkpt>
      <trkpt lat="47.12319" lon="6.15645">
        <ele>539</ele>
        <time>2011-04-09T13:53:24Z</time>
      </trkpt>
      <trkpt lat="47.12309" lon="6.15598">
        <ele>536</ele>
        <time>2011-04-09T13:54:03Z</time>
      </trkpt>
      <trkpt lat="47.12295" lon="6.15548">
        <ele>535</ele>
        <time>2011-04-09T13:54:32Z</time>
      </trkpt>
      <trkpt lat="47.12303" lon="6.15505">
        <ele>534</ele>
        <time>2011-04-09T13:55:10Z</time>
      </trkpt>
      <trkpt lat="47.12303" lon="6.15465">
        <ele>537</ele>
        <time>2011-04-09T13:55:47Z</time>
      </trkpt>
      <trkpt lat="47.12299" lon="6.15471">
        <ele>537</ele>
        <time>2011-04-09T13:56:05Z</time>
      </trkpt>
      <trkpt lat="47.12294" lon="6.15523">
        <ele>538</ele>
        <time>2011-04-09T13:56:38Z</time>
      </trkpt>
      <trkpt lat="47.12301" lon="6.15533">
        <ele>538</ele>
        <time>2011-04-09T13:57:05Z</time>
      </trkpt>
      <trkpt lat="47.12298" lon="6.15533">
        <ele>538</ele>
        <time>2011-04-09T13:57:35Z</time>
      </trkpt>
      <trkpt lat="47.12307" lon="6.15496">
        <ele>538</ele>
        <time>2011-04-09T13:57:56Z</time>
      </trkpt>
      <trkpt lat="47.12308" lon="6.15442">
        <ele>538</ele>
        <time>2011-04-09T13:58:25Z</time>
      </trkpt>
      <trkpt lat="47.12307" lon="6.15436">
        <ele>537</ele>
        <time>2011-04-09T13:59:06Z</time>
      </trkpt>
      <trkpt lat="47.12308" lon="6.15423">
        <ele>537</ele>
        <time>2011-04-09T13:59:16Z</time>
      </trkpt>
      <trkpt lat="47.1231" lon="6.15373">
        <ele>538</ele>
        <time>2011-04-09T13:59:48Z</time>
      </trkpt>
      <trkpt lat="47.12314" lon="6.15318">
        <ele>541</ele>
        <time>2011-04-09T14:00:19Z</time>
      </trkpt>
      <trkpt lat="47.12312" lon="6.15263">
        <ele>544</ele>
        <time>2011-04-09T14:00:49Z</time>
      </trkpt>
      <trkpt lat="47.12299" lon="6.15199">
        <ele>545</ele>
        <time>2011-04-09T14:01:22Z</time>
      </trkpt>
      <trkpt lat="47.12295" lon="6.15194">
        <ele>545</ele>
        <time>2011-04-09T14:01:27Z</time>
      </trkpt>
      <trkpt lat="47.12294" lon="6.15192">
        <ele>545</ele>
        <time>2011-04-09T14:01:38Z</time>
      </trkpt>
      <trkpt lat="47.12295" lon="6.15186">
        <ele>545</ele>
        <time>2011-04-09T14:02:05Z</time>
      </trkpt>
      <trkpt lat="47.12293" lon="6.1518">
        <ele>544</ele>
        <time>2011-04-09T14:02:11Z</time>
      </trkpt>
      <trkpt lat="47.12291" lon="6.15174">
        <ele>544</ele>
        <time>2011-04-09T14:02:18Z</time>
      </trkpt>
      <trkpt lat="47.1229" lon="6.15169">
        <ele>544</ele>
        <time>2011-04-09T14:02:34Z</time>
      </trkpt>
      <trkpt lat="47.1228" lon="6.15155">
        <ele>543</ele>
        <time>2011-04-09T14:02:55Z</time>
      </trkpt>
      <trkpt lat="47.12258" lon="6.15122">
        <ele>541</ele>
        <time>2011-04-09T14:03:25Z</time>
      </trkpt>
      <trkpt lat="47.12246" lon="6.15101">
        <ele>540</ele>
        <time>2011-04-09T14:03:43Z</time>
      </trkpt>
      <trkpt lat="47.12242" lon="6.15099">
        <ele>540</ele>
        <time>2011-04-09T14:03:47Z</time>
      </trkpt>
      <trkpt lat="47.12232" lon="6.15099">
        <ele>540</ele>
        <time>2011-04-09T14:03:56Z</time>
      </trkpt>
      <trkpt lat="47.12228" lon="6.15095">
        <ele>539</ele>
        <time>2011-04-09T14:04:04Z</time>
      </trkpt>
      <trkpt lat="47.12218" lon="6.15062">
        <ele>537</ele>
        <time>2011-04-09T14:04:33Z</time>
      </trkpt>
      <trkpt lat="47.12214" lon="6.15059">
        <ele>536</ele>
        <time>2011-04-09T14:04:41Z</time>
      </trkpt>
      <trkpt lat="47.12189" lon="6.15062">
        <ele>534</ele>
        <time>2011-04-09T14:05:04Z</time>
      </trkpt>
      <trkpt lat="47.12173" lon="6.15036">
        <ele>531</ele>
        <time>2011-04-09T14:05:31Z</time>
      </trkpt>
      <trkpt lat="47.12177" lon="6.1504">
        <ele>531</ele>
        <time>2011-04-09T14:05:52Z</time>
      </trkpt>
      <trkpt lat="47.12196" lon="6.15063">
        <ele>528</ele>
        <time>2011-04-09T14:06:20Z</time>
      </trkpt>
      <trkpt lat="47.12201" lon="6.15062">
        <ele>528</ele>
        <time>2011-04-09T14:06:26Z</time>
      </trkpt>
      <trkpt lat="47.12214" lon="6.15052">
        <ele>527</ele>
        <time>2011-04-09T14:06:43Z</time>
      </trkpt>
      <trkpt lat="47.12216" lon="6.15048">
        <ele>526</ele>
        <time>2011-04-09T14:07:00Z</time>
      </trkpt>
      <trkpt lat="47.12213" lon="6.15044">
        <ele>524</ele>
        <time>2011-04-09T14:07:36Z</time>
      </trkpt>
      <trkpt lat="47.12211" lon="6.15036">
        <ele>522</ele>
        <time>2011-04-09T14:07:49Z</time>
      </trkpt>
      <trkpt lat="47.12191" lon="6.14992">
        <ele>517</ele>
        <time>2011-04-09T14:08:35Z</time>
      </trkpt>
      <trkpt lat="47.1219" lon="6.14983">
        <ele>517</ele>
        <time>2011-04-09T14:08:51Z</time>
      </trkpt>
      <trkpt lat="47.12186" lon="6.14968">
        <ele>516</ele>
        <time>2011-04-09T14:09:06Z</time>
      </trkpt>
      <trkpt lat="47.12162" lon="6.14928">
        <ele>517</ele>
        <time>2011-04-09T14:09:34Z</time>
      </trkpt>
      <trkpt lat="47.12148" lon="6.14903">
        <ele>517</ele>
        <time>2011-04-09T14:10:01Z</time>
      </trkpt>
      <trkpt lat="47.12146" lon="6.14884">
        <ele>516</ele>
        <time>2011-04-09T14:10:18Z</time>
      </trkpt>
      <trkpt lat="47.12147" lon="6.14871">
        <ele>516</ele>
        <time>2011-04-09T14:10:30Z</time>
      </trkpt>
      <trkpt lat="47.12134" lon="6.14836">
        <ele>515</ele>
        <time>2011-04-09T14:10:59Z</time>
      </trkpt>
      <trkpt lat="47.12112" lon="6.14785">
        <ele>515</ele>
        <time>2011-04-09T14:11:30Z</time>
      </trkpt>
      <trkpt lat="47.12108" lon="6.14774">
        <ele>515</ele>
        <time>2011-04-09T14:11:38Z</time>
      </trkpt>
      <trkpt lat="47.12096" lon="6.14753">
        <ele>514</ele>
        <time>2011-04-09T14:11:58Z</time>
      </trkpt>
      <trkpt lat="47.12096" lon="6.14739">
        <ele>514</ele>
        <time>2011-04-09T14:12:10Z</time>
      </trkpt>
      <trkpt lat="47.12084" lon="6.14715">
        <ele>514</ele>
        <time>2011-04-09T14:12:27Z</time>
      </trkpt>
      <trkpt lat="47.12068" lon="6.14702">
        <ele>514</ele>
        <time>2011-04-09T14:12:40Z</time>
      </trkpt>
      <trkpt lat="47.12056" lon="6.14701">
        <ele>513</ele>
        <time>2011-04-09T14:12:53Z</time>
      </trkpt>
      <trkpt lat="47.12047" lon="6.14702">
        <ele>512</ele>
        <time>2011-04-09T14:13:05Z</time>
      </trkpt>
      <trkpt lat="47.12036" lon="6.14692">
        <ele>511</ele>
        <time>2011-04-09T14:13:21Z</time>
      </trkpt>
      <trkpt lat="47.12026" lon="6.14692">
        <ele>510</ele>
        <time>2011-04-09T14:13:35Z</time>
      </trkpt>
      <trkpt lat="47.12021" lon="6.14694">
        <ele>510</ele>
        <time>2011-04-09T14:13:48Z</time>
      </trkpt>
      <trkpt lat="47.12016" lon="6.14692">
        <ele>508</ele>
        <time>2011-04-09T14:14:00Z</time>
      </trkpt>
      <trkpt lat="47.12011" lon="6.14694">
        <ele>507</ele>
        <time>2011-04-09T14:14:11Z</time>
      </trkpt>
      <trkpt lat="47.12004" lon="6.14683">
        <ele>508</ele>
        <time>2011-04-09T14:14:28Z</time>
      </trkpt>
      <trkpt lat="47.11991" lon="6.14673">
        <ele>507</ele>
        <time>2011-04-09T14:14:43Z</time>
      </trkpt>
      <trkpt lat="47.11958" lon="6.14648">
        <ele>505</ele>
        <time>2011-04-09T14:15:15Z</time>
      </trkpt>
      <trkpt lat="47.11951" lon="6.14639">
        <ele>504</ele>
        <time>2011-04-09T14:15:24Z</time>
      </trkpt>
      <trkpt lat="47.11946" lon="6.14597">
        <ele>501</ele>
        <time>2011-04-09T14:15:49Z</time>
      </trkpt>
      <trkpt lat="47.11943" lon="6.14541">
        <ele>500</ele>
        <time>2011-04-09T14:16:19Z</time>
      </trkpt>
      <trkpt lat="47.11931" lon="6.14487">
        <ele>497</ele>
        <time>2011-04-09T14:16:50Z</time>
      </trkpt>
      <trkpt lat="47.11911" lon="6.1443">
        <ele>494</ele>
        <time>2011-04-09T14:17:23Z</time>
      </trkpt>
      <trkpt lat="47.11897" lon="6.14385">
        <ele>492</ele>
        <time>2011-04-09T14:17:53Z</time>
      </trkpt>
      <trkpt lat="47.11888" lon="6.14315">
        <ele>490</ele>
        <time>2011-04-09T14:18:32Z</time>
      </trkpt>
      <trkpt lat="47.11876" lon="6.14259">
        <ele>490</ele>
        <time>2011-04-09T14:19:03Z</time>
      </trkpt>
      <trkpt lat="47.11856" lon="6.14197">
        <ele>491</ele>
        <time>2011-04-09T14:19:35Z</time>
      </trkpt>
      <trkpt lat="47.11845" lon="6.14174">
        <ele>492</ele>
        <time>2011-04-09T14:19:54Z</time>
      </trkpt>
      <trkpt lat="47.11837" lon="6.14167">
        <ele>491</ele>
        <time>2011-04-09T14:20:00Z</time>
      </trkpt>
      <trkpt lat="47.11788" lon="6.14165">
        <ele>487</ele>
        <time>2011-04-09T14:20:34Z</time>
      </trkpt>
      <trkpt lat="47.11746" lon="6.14158">
        <ele>485</ele>
        <time>2011-04-09T14:21:06Z</time>
      </trkpt>
      <trkpt lat="47.11737" lon="6.14152">
        <ele>485</ele>
        <time>2011-04-09T14:21:14Z</time>
      </trkpt>
      <trkpt lat="47.11718" lon="6.1415">
        <ele>483</ele>
        <time>2011-04-09T14:21:34Z</time>
      </trkpt>
      <trkpt lat="47.11704" lon="6.14153">
        <ele>483</ele>
        <time>2011-04-09T14:21:46Z</time>
      </trkpt>
      <trkpt lat="47.11685" lon="6.14147">
        <ele>483</ele>
        <time>2011-04-09T14:22:01Z</time>
      </trkpt>
      <trkpt lat="47.11673" lon="6.14149">
        <ele>484</ele>
        <time>2011-04-09T14:22:22Z</time>
      </trkpt>
      <trkpt lat="47.11634" lon="6.14144">
        <ele>484</ele>
        <time>2011-04-09T14:22:55Z</time>
      </trkpt>
      <trkpt lat="47.11591" lon="6.14144">
        <ele>484</ele>
        <time>2011-04-09T14:23:32Z</time>
      </trkpt>
      <trkpt lat="47.11574" lon="6.14146">
        <ele>484</ele>
        <time>2011-04-09T14:24:02Z</time>
      </trkpt>
      <trkpt lat="47.11536" lon="6.14148">
        <ele>483</ele>
        <time>2011-04-09T14:24:35Z</time>
      </trkpt>
      <trkpt lat="47.11504" lon="6.14151">
        <ele>483</ele>
        <time>2011-04-09T14:25:03Z</time>
      </trkpt>
      <trkpt lat="47.1147" lon="6.14183">
        <ele>478</ele>
        <time>2011-04-09T14:25:36Z</time>
      </trkpt>
      <trkpt lat="47.11431" lon="6.14193">
        <ele>472</ele>
        <time>2011-04-09T14:26:12Z</time>
      </trkpt>
      <trkpt lat="47.11402" lon="6.14196">
        <ele>471</ele>
        <time>2011-04-09T14:26:33Z</time>
      </trkpt>
      <trkpt lat="47.11394" lon="6.1419">
        <ele>471</ele>
        <time>2011-04-09T14:26:54Z</time>
      </trkpt>
      <trkpt lat="47.11395" lon="6.14183">
        <ele>471</ele>
        <time>2011-04-09T14:26:55Z</time>
      </trkpt>
      <trkpt lat="47.114" lon="6.14182">
        <ele>471</ele>
        <time>2011-04-09T14:27:01Z</time>
      </trkpt>
      <trkpt lat="47.11401" lon="6.1419">
        <ele>471</ele>
        <time>2011-04-09T14:27:34Z</time>
      </trkpt>
      <trkpt lat="47.11398" lon="6.14195">
        <ele>471</ele>
        <time>2011-04-09T14:27:38Z</time>
      </trkpt>
      <trkpt lat="47.11371" lon="6.14223">
        <ele>468</ele>
        <time>2011-04-09T14:28:07Z</time>
      </trkpt>
      <trkpt lat="47.11362" lon="6.14223">
        <ele>467</ele>
        <time>2011-04-09T14:28:15Z</time>
      </trkpt>
      <trkpt lat="47.11358" lon="6.14217">
        <ele>466</ele>
        <time>2011-04-09T14:28:19Z</time>
      </trkpt>
      <trkpt lat="47.11341" lon="6.14177">
        <ele>464</ele>
        <time>2011-04-09T14:28:51Z</time>
      </trkpt>
      <trkpt lat="47.11336" lon="6.14165">
        <ele>463</ele>
        <time>2011-04-09T14:29:02Z</time>
      </trkpt>
      <trkpt lat="47.11336" lon="6.14158">
        <ele>463</ele>
        <time>2011-04-09T14:29:07Z</time>
      </trkpt>
      <trkpt lat="47.1135" lon="6.14146">
        <ele>461</ele>
        <time>2011-04-09T14:29:40Z</time>
      </trkpt>
      <trkpt lat="47.1137" lon="6.14108">
        <ele>458</ele>
        <time>2011-04-09T14:30:14Z</time>
      </trkpt>
      <trkpt lat="47.11383" lon="6.14086">
        <ele>455</ele>
        <time>2011-04-09T14:30:43Z</time>
      </trkpt>
      <trkpt lat="47.11376" lon="6.14078">
        <ele>454</ele>
        <time>2011-04-09T14:30:58Z</time>
      </trkpt>
      <trkpt lat="47.11377" lon="6.14071">
        <ele>453</ele>
        <time>2011-04-09T14:31:03Z</time>
      </trkpt>
      <trkpt lat="47.1138" lon="6.14061">
        <ele>453</ele>
        <time>2011-04-09T14:31:11Z</time>
      </trkpt>
      <trkpt lat="47.11375" lon="6.14061">
        <ele>453</ele>
        <time>2011-04-09T14:31:56Z</time>
      </trkpt>
      <trkpt lat="47.11371" lon="6.14062">
        <ele>453</ele>
        <time>2011-04-09T14:32:03Z</time>
      </trkpt>
      <trkpt lat="47.1137" lon="6.14047">
        <ele>454</ele>
        <time>2011-04-09T14:32:22Z</time>
      </trkpt>
      <trkpt lat="47.11369" lon="6.1404">
        <ele>454</ele>
        <time>2011-04-09T14:32:37Z</time>
      </trkpt>
      <trkpt lat="47.11351" lon="6.14035">
        <ele>454</ele>
        <time>2011-04-09T14:33:04Z</time>
      </trkpt>
      <trkpt lat="47.11339" lon="6.14033">
        <ele>453</ele>
        <time>2011-04-09T14:33:21Z</time>
      </trkpt>
      <trkpt lat="47.11319" lon="6.14053">
        <ele>453</ele>
        <time>2011-04-09T14:33:57Z</time>
      </trkpt>
      <trkpt lat="47.1131" lon="6.14061">
        <ele>452</ele>
        <time>2011-04-09T14:34:13Z</time>
      </trkpt>
      <trkpt lat="47.11281" lon="6.14065">
        <ele>452</ele>
        <time>2011-04-09T14:34:51Z</time>
      </trkpt>
      <trkpt lat="47.11233" lon="6.14081">
        <ele>450</ele>
        <time>2011-04-09T14:35:27Z</time>
      </trkpt>
      <trkpt lat="47.11203" lon="6.14096">
        <ele>447</ele>
        <time>2011-04-09T14:36:01Z</time>
      </trkpt>
      <trkpt lat="47.11166" lon="6.141">
        <ele>446</ele>
        <time>2011-04-09T14:36:35Z</time>
      </trkpt>
      <trkpt lat="47.11141" lon="6.14111">
        <ele>445</ele>
        <time>2011-04-09T14:37:05Z</time>
      </trkpt>
      <trkpt lat="47.11103" lon="6.14124">
        <ele>434</ele>
        <time>2011-04-09T14:37:40Z</time>
      </trkpt>
      <trkpt lat="47.1107" lon="6.1414">
        <ele>416</ele>
        <time>2011-04-09T14:38:16Z</time>
      </trkpt>
      <trkpt lat="47.11062" lon="6.14147">
        <ele>412</ele>
        <time>2011-04-09T14:38:24Z</time>
      </trkpt>
      <trkpt lat="47.11056" lon="6.14149">
        <ele>408</ele>
        <time>2011-04-09T14:38:31Z</time>
      </trkpt>
      <trkpt lat="47.11025" lon="6.14178">
        <ele>394</ele>
        <time>2011-04-09T14:39:02Z</time>
      </trkpt>
      <trkpt lat="47.10995" lon="6.14217">
        <ele>384</ele>
        <time>2011-04-09T14:39:33Z</time>
      </trkpt>
      <trkpt lat="47.10973" lon="6.14257">
        <ele>375</ele>
        <time>2011-04-09T14:40:04Z</time>
      </trkpt>
      <trkpt lat="47.10953" lon="6.143">
        <ele>366</ele>
        <time>2011-04-09T14:40:36Z</time>
      </trkpt>
      <trkpt lat="47.10935" lon="6.1435">
        <ele>359</ele>
        <time>2011-04-09T14:41:07Z</time>
      </trkpt>
      <trkpt lat="47.10927" lon="6.14371">
        <ele>356</ele>
        <time>2011-04-09T14:41:22Z</time>
      </trkpt>
      <trkpt lat="47.10883" lon="6.14394">
        <ele>352</ele>
        <time>2011-04-09T14:41:55Z</time>
      </trkpt>
      <trkpt lat="47.10843" lon="6.14429">
        <ele>348</ele>
        <time>2011-04-09T14:42:28Z</time>
      </trkpt>
      <trkpt lat="47.10808" lon="6.14442">
        <ele>342</ele>
        <time>2011-04-09T14:43:13Z</time>
      </trkpt>
      <trkpt lat="47.10774" lon="6.14457">
        <ele>339</ele>
        <time>2011-04-09T14:43:43Z</time>
      </trkpt>
      <trkpt lat="47.10759" lon="6.14466">
        <ele>338</ele>
        <time>2011-04-09T14:43:54Z</time>
      </trkpt>
      <trkpt lat="47.10735" lon="6.14504">
        <ele>334</ele>
        <time>2011-04-09T14:44:22Z</time>
      </trkpt>
      <trkpt lat="47.10728" lon="6.14508">
        <ele>334</ele>
        <time>2011-04-09T14:44:28Z</time>
      </trkpt>
      <trkpt lat="47.10712" lon="6.14504">
        <ele>333</ele>
        <time>2011-04-09T14:44:40Z</time>
      </trkpt>
    </trkseg>
  </trk>
</gpx>